Main page
METAR-TAF:

METAR-TAF

Airports :

Tuzla, Bosnia and Herzegovina

Tuzla International Airport

latitude: 44-33N, longitude: 018-42E, elevation: 306 m

Current weather observation

The report was made 39 minutes ago, at 18:30 UTC
Wind 3 kt from the West
Temperature 5°C
Humidity 100%
Pressure 1020 hPa
Visibility: 1500 m
Broken clouds at a height of 300 ft
Overcast at a height of 800 ft
drizzle, mist

METAR: LQTZ 171830Z 28003KT 1500 DZ BR BKN003 OVC008 05/05 Q1020

Time: 20:09 (19:09 UTC)

Forecast

The report was made 2 hours and 9 minutes ago, at 17:00 UTC
Forecast valid from 17 at 18 UTC to 18 at 18 UTC
Wind 4 kt from the West
Visibility: 3000 m
Broken clouds at a height of 500 ft
Overcast at a height of 1000 ft
light drizzle, mist
Temporary
from 17 at 18 UTC to 18 at 04 UTC
Visibility: 1200 m
Overcast at a height of 300 ft
light rain

TAF: LQTZ 171700Z 1718/1818 27004KT 3000 -DZ BR BKN005 OVC010 TX05/1812Z TN03/1805Z TEMPO 1718/1804 1200 -RA OVC003

Weather observations and forecasts of more than 4000 airports (METAR and TAF reports).

The available stations are represented by yellow and red dots on the map.

Hover mouse over dot to see the name of the station.

Then click to see weather observations and forecasts.

To change the map : click on the green buttons with a black cross to zoom in, on the green button with a dash to zoom out, or on the green arrows for adjacent maps.


METAR-TAF: